Time;durP1;ratioP1;P1;durP2;ratioP2;P2;SDS_P1;SDS_P2;PMS_P1;PMS_P2;Temp;Humidity;BMP_temperature;BMP_pressure;BME280_temperature;BME280_humidity;BME280_pressure;Samples;Min_cycle;Max_cycle;Signal;HPM_P1;HPM_P2
2023/01/10 00:00:57;;;;;;;5.78;1.58;;;23.20;52.20;;;;;;5090124;28;20186;-50
2023/01/10 00:03:27;;;;;;;4.40;1.50;;;23.20;52.20;;;;;;5073270;28;20198;-55
2023/01/10 00:05:58;;;;;;;5.30;1.70;;;23.20;52.20;;;;;;5076873;28;20970;-55
2023/01/10 00:08:29;;;;;;;9.30;2.20;;;23.20;52.30;;;;;;5092875;28;20280;-50
2023/01/10 00:13:22;;;;;;;6.80;1.83;;;23.30;52.50;;;;;;5090380;28;20202;-55
2023/01/10 00:13:54;;;;;;;6.40;1.80;;;23.30;52.60;;;;;;5073751;28;20206;-53
2023/01/10 00:16:24;;;;;;;3.45;1.48;;;23.30;52.60;;;;;;5080335;28;20223;-51
2023/01/10 00:18:55;;;;;;;5.80;1.73;;;23.30;52.60;;;;;;5093253;28;20225;-55
2023/01/10 00:21:27;;;;;;;3.90;1.83;;;23.30;52.60;;;;;;5092705;28;20673;-55
2023/01/10 00:24:00;;;;;;;4.72;1.67;;;23.30;52.60;;;;;;5093298;28;20198;-56
2023/01/10 00:26:30;;;;;;;5.75;1.63;;;23.40;52.70;;;;;;5093478;28;20205;-54
2023/01/10 00:29:04;;;;;;;8.15;1.98;;;23.40;52.80;;;;;;5093419;28;20195;-50
2023/01/10 00:31:34;;;;;;;5.88;1.80;;;23.40;53.00;;;;;;5093412;28;20214;-52
2023/01/10 00:34:06;;;;;;;4.63;1.50;;;23.50;53.10;;;;;;5092661;28;20198;-55
2023/01/10 00:36:37;;;;;;;4.25;1.35;;;23.50;53.20;;;;;;5093074;28;20686;-51
2023/01/10 00:39:09;;;;;;;6.95;1.90;;;23.50;53.10;;;;;;5092587;28;20230;-56
2023/01/10 00:44:29;;;;;;;4.68;1.63;;;23.60;53.30;;;;;;5073365;28;20584;-54
2023/01/10 00:47:00;;;;;;;7.85;2.05;;;23.60;53.50;;;;;;5071517;28;20917;-53
2023/01/10 00:49:30;;;;;;;6.30;1.63;;;23.60;53.80;;;;;;5087123;28;20198;-53
2023/01/10 00:52:01;;;;;;;6.25;1.63;;;23.70;53.90;;;;;;5082779;28;20198;-50
2023/01/10 00:54:32;;;;;;;7.70;2.00;;;23.70;53.90;;;;;;5072645;28;20223;-56
2023/01/10 00:57:02;;;;;;;5.72;1.58;;;23.70;53.80;;;;;;5072015;28;20197;-50
2023/01/10 00:59:35;;;;;;;5.63;1.70;;;23.70;53.70;;;;;;5075174;28;20698;-51
2023/01/10 01:02:06;;;;;;;6.63;1.70;;;23.80;53.70;;;;;;5083351;28;20190;-56
2023/01/10 01:04:37;;;;;;;6.38;1.80;;;23.80;53.70;;;;;;5092773;28;20749;-52
2023/01/10 01:07:08;;;;;;;3.03;1.52;;;23.80;53.70;;;;;;5082816;28;20191;-53
2023/01/10 01:10:25;;;;;;;5.50;1.60;;;23.80;53.80;;;;;;5085877;28;20198;-53
2023/01/10 01:12:29;;;;;;;3.75;1.38;;;23.80;53.80;;;;;;5079101;28;20223;-50
2023/01/10 01:15:02;;;;;;;6.70;1.98;;;23.90;53.70;;;;;;5077207;28;20225;-52
2023/01/10 01:17:33;;;;;;;7.80;2.10;;;23.90;53.70;;;;;;5078716;28;20703;-51
2023/01/10 01:20:03;;;;;;;9.48;1.70;;;23.90;53.80;;;;;;5071315;28;20233;-54
2023/01/10 01:22:34;;;;;;;4.65;1.60;;;23.90;53.70;;;;;;5084729;28;20558;-56
2023/01/10 01:25:05;;;;;;;4.70;1.45;;;24.00;53.80;;;;;;5092263;28;20703;-51
2023/01/10 01:27:36;;;;;;;7.15;1.70;;;24.00;53.80;;;;;;5077274;28;20195;-49
2023/01/10 01:30:11;;;;;;;5.32;1.50;;;24.00;53.80;;;;;;5072081;28;20246;-50
2023/01/10 01:32:42;;;;;;;5.97;1.40;;;24.00;53.80;;;;;;5072824;28;20669;-55
2023/01/10 01:35:16;;;;;;;5.22;1.58;;;24.10;53.80;;;;;;5073280;28;20210;-53
2023/01/10 01:37:47;;;;;;;5.22;1.90;;;24.10;53.80;;;;;;5072658;28;20202;-53
2023/01/10 01:40:18;;;;;;;7.55;1.80;;;24.10;53.80;;;;;;5091058;28;20230;-53
2023/01/10 01:42:54;;;;;;;4.95;1.73;;;24.10;53.70;;;;;;5075109;28;20699;-54
2023/01/10 01:45:48;;;;;;;6.05;1.75;;;24.10;53.60;;;;;;5072365;28;20221;-52
2023/01/10 01:48:30;;;;;;;6.43;2.03;;;24.20;53.70;;;;;;5091888;28;20201;-50
2023/01/10 01:51:06;;;;;;;5.72;1.67;;;24.20;53.70;;;;;;5090809;28;20198;-56
2023/01/10 01:53:42;;;;;;;5.72;1.83;;;24.20;53.70;;;;;;5071122;28;20716;-57
2023/01/10 01:56:18;;;;;;;5.68;1.90;;;24.20;53.70;;;;;;5070634;28;20214;-53
2023/01/10 01:58:52;;;;;;;7.22;1.63;;;24.20;53.70;;;;;;5070989;28;20614;-50
2023/01/10 02:01:25;;;;;;;6.35;1.67;;;24.30;54.30;;;;;;5071762;28;20189;-52
2023/01/10 02:04:00;;;;;;;6.72;2.05;;;24.30;53.70;;;;;;5072066;28;20201;-56
2023/01/10 02:06:31;;;;;;;4.63;1.60;;;24.30;53.60;;;;;;5071987;28;20213;-53
2023/01/10 02:09:09;;;;;;;5.72;1.73;;;24.30;53.60;;;;;;5079078;28;20204;-49
2023/01/10 02:11:40;;;;;;;6.45;2.05;;;24.30;53.60;;;;;;5086826;28;20186;-50
2023/01/10 02:14:11;;;;;;;5.82;1.67;;;24.40;53.60;;;;;;5070734;28;20191;-50
2023/01/10 02:16:44;;;;;;;5.70;1.30;;;24.40;53.60;;;;;;5071409;28;20265;-53
2023/01/10 02:19:25;;;;;;;5.60;1.65;;;24.40;53.60;;;;;;5070602;28;20230;-51
2023/01/10 02:22:26;;;;;;;4.45;1.80;;;24.40;53.60;;;;;;5070253;28;20191;-48
2023/01/10 02:25:31;;;;;;;4.57;1.27;;;24.50;53.60;;;;;;5071102;28;20219;-53
2023/01/10 02:28:24;;;;;;;4.47;1.80;;;24.50;53.50;;;;;;5086773;28;20190;-49
2023/01/10 02:31:25;;;;;;;5.85;1.88;;;24.50;53.50;;;;;;5091431;28;20198;-51
2023/01/10 02:34:06;;;;;;;6.72;1.63;;;24.50;53.60;;;;;;5071054;28;20194;-50
2023/01/10 02:36:42;;;;;;;5.75;1.77;;;24.60;53.50;;;;;;5071539;28;20194;-53
2023/01/10 02:39:20;;;;;;;7.88;2.03;;;24.60;53.50;;;;;;5081195;28;20320;-49
2023/01/10 02:41:56;;;;;;;8.25;1.98;;;24.60;53.50;;;;;;5084354;28;20199;-56
2023/01/10 02:44:33;;;;;;;4.22;1.60;;;24.60;53.50;;;;;;5070638;28;20218;-50
2023/01/10 02:47:06;;;;;;;6.75;2.17;;;24.60;53.40;;;;;;5076922;28;20228;-52
2023/01/10 02:49:47;;;;;;;9.02;2.17;;;24.60;53.40;;;;;;5076230;28;20281;-52
2023/01/10 02:52:21;;;;;;;8.02;2.00;;;24.70;53.50;;;;;;5071150;28;20226;-50
2023/01/10 02:54:55;;;;;;;5.63;1.75;;;24.70;53.40;;;;;;5070227;28;20290;-53
2023/01/10 02:57:44;;;;;;;4.80;1.98;;;24.70;53.40;;;;;;5071319;28;20222;-53
2023/01/10 03:00:32;;;;;;;6.53;2.08;;;24.70;53.50;;;;;;5071646;28;20278;-54
2023/01/10 03:03:16;;;;;;;4.38;1.52;;;24.70;53.30;;;;;;5070927;28;20274;-55
2023/01/10 03:05:57;;;;;;;6.30;1.70;;;24.70;53.30;;;;;;5070325;28;20214;-54
2023/01/10 03:08:36;;;;;;;6.57;2.22;;;24.80;53.30;;;;;;5087859;28;20202;-52
2023/01/10 03:11:08;;;;;;;8.20;1.85;;;24.80;53.30;;;;;;5090027;28;20759;-54
2023/01/10 03:13:45;;;;;;;5.15;1.92;;;24.80;53.30;;;;;;5074179;28;20735;-55
2023/01/10 03:16:19;;;;;;;7.78;1.83;;;24.90;53.30;;;;;;5069886;28;20272;-55
2023/01/10 03:18:55;;;;;;;5.32;1.67;;;24.90;53.30;;;;;;5090236;28;22107;-53
2023/01/10 03:21:29;;;;;;;8.52;1.88;;;24.90;53.30;;;;;;5090499;28;20277;-51
2023/01/10 03:24:07;;;;;;;4.93;1.98;;;24.90;53.30;;;;;;5070336;28;20229;-51
2023/01/10 03:26:46;;;;;;;7.32;1.98;;;24.90;53.30;;;;;;5070319;28;20199;-54
2023/01/10 03:29:20;;;;;;;5.53;1.50;;;25.00;53.30;;;;;;5070689;28;20206;-51
2023/01/10 03:31:56;;;;;;;8.40;1.88;;;25.00;53.20;;;;;;5070402;28;20195;-53
2023/01/10 03:34:28;;;;;;;4.78;1.65;;;25.00;53.10;;;;;;5070283;28;20289;-55
2023/01/10 03:37:08;;;;;;;4.05;1.50;;;25.10;53.20;;;;;;5070934;28;20273;-46
2023/01/10 03:39:46;;;;;;;5.63;1.92;;;25.10;53.20;;;;;;5082459;28;20222;-53
2023/01/10 03:42:23;;;;;;;5.13;1.80;;;25.10;53.10;;;;;;5070707;28;20201;-52
2023/01/10 03:44:58;;;;;;;5.32;1.85;;;25.10;53.00;;;;;;5074451;28;20209;-51
2023/01/10 03:47:35;;;;;;;5.78;1.70;;;25.20;53.00;;;;;;5082847;28;20641;-48
2023/01/10 03:50:09;;;;;;;6.40;1.73;;;25.20;52.90;;;;;;5088856;28;20528;-54
2023/01/10 03:52:44;;;;;;;7.55;1.80;;;25.30;52.90;;;;;;5090100;28;20211;-47
2023/01/10 03:55:19;;;;;;;7.60;1.90;;;25.30;52.80;;;;;;5089147;28;20298;-55
2023/01/10 03:57:50;;;;;;;5.80;1.88;;;25.30;52.80;;;;;;5090113;28;20273;-52
2023/01/10 04:00:23;;;;;;;6.30;1.83;;;25.30;52.80;;;;;;5091112;28;20651;-57
2023/01/10 04:02:54;;;;;;;7.22;1.70;;;25.40;52.80;;;;;;5090120;28;20618;-57
2023/01/10 04:05:25;;;;;;;4.47;1.48;;;25.40;52.70;;;;;;5089712;28;20218;-54
2023/01/10 04:07:58;;;;;;;3.90;1.63;;;25.40;52.60;;;;;;5080714;28;20226;-58
2023/01/10 04:10:28;;;;;;;4.50;1.52;;;25.50;52.60;;;;;;5070369;28;20682;-49
2023/01/10 04:13:03;;;;;;;4.30;1.63;;;25.50;52.50;;;;;;5069733;28;20187;-50
2023/01/10 04:15:34;;;;;;;5.93;1.70;;;25.50;52.50;;;;;;5069475;28;20701;-51
2023/01/10 04:18:05;;;;;;;5.65;2.15;;;25.60;52.50;;;;;;5079843;28;20289;-51
2023/01/10 04:20:36;;;;;;;5.90;1.75;;;25.60;52.50;;;;;;5090456;28;20315;-53
2023/01/10 04:23:08;;;;;;;3.38;1.40;;;25.60;52.40;;;;;;5092764;28;20226;-57
2023/01/10 04:25:39;;;;;;;6.18;1.73;;;25.60;52.30;;;;;;5093451;28;20232;-57
2023/01/10 04:28:10;;;;;;;4.22;1.80;;;25.60;52.30;;;;;;5093523;28;20205;-59
2023/01/10 04:30:41;;;;;;;5.88;1.85;;;25.70;52.30;;;;;;5093019;28;20280;-49
2023/01/10 04:33:12;;;;;;;5.45;1.85;;;25.70;52.20;;;;;;5083442;28;20223;-54
2023/01/10 04:35:42;;;;;;;5.88;1.85;;;25.70;52.20;;;;;;5072290;28;20246;-56
2023/01/10 04:38:15;;;;;;;7.00;1.73;;;25.80;52.30;;;;;;5074979;28;20635;-56
2023/01/10 04:40:46;;;;;;;5.63;1.92;;;25.70;52.00;;;;;;5092162;28;20261;-54
2023/01/10 04:43:17;;;;;;;5.47;1.77;;;25.80;52.10;;;;;;5082868;28;20223;-52
2023/01/10 04:45:48;;;;;;;6.63;1.70;;;25.80;52.00;;;;;;5072836;28;20302;-59
2023/01/10 04:48:20;;;;;;;4.75;1.60;;;25.80;52.10;;;;;;5076802;28;20918;-49
2023/01/10 04:50:54;;;;;;;8.10;1.75;;;25.80;52.10;;;;;;5077050;28;20206;-51
2023/01/10 04:53:27;;;;;;;5.57;1.77;;;25.80;52.00;;;;;;5073454;28;20685;-53
2023/01/10 04:56:04;;;;;;;4.85;1.92;;;25.80;51.90;;;;;;5073598;28;20253;-56
2023/01/10 04:58:36;;;;;;;3.05;1.42;;;25.90;51.90;;;;;;5073583;28;20202;-52
2023/01/10 05:01:11;;;;;;;5.85;1.73;;;25.90;51.90;;;;;;5073919;28;20617;-47
2023/01/10 05:03:42;;;;;;;5.28;2.00;;;25.90;51.90;;;;;;5073780;28;20281;-49
2023/01/10 05:06:13;;;;;;;5.38;1.90;;;25.90;51.80;;;;;;5074889;28;20296;-53
2023/01/10 05:08:46;;;;;;;4.00;1.55;;;25.90;51.80;;;;;;5078592;28;20200;-53
2023/01/10 05:11:17;;;;;;;4.45;1.80;;;25.90;51.70;;;;;;5093339;28;20714;-50
2023/01/10 05:13:48;;;;;;;4.97;1.67;;;25.90;51.70;;;;;;5093565;28;20264;-52
2023/01/10 05:16:19;;;;;;;3.63;1.38;;;25.90;51.70;;;;;;5093525;28;20214;-54
2023/01/10 05:18:50;;;;;;;4.13;1.65;;;25.90;51.60;;;;;;5082507;28;20191;-59
2023/01/10 05:21:21;;;;;;;3.50;1.48;;;25.90;51.60;;;;;;5072926;28;20227;-55
2023/01/10 05:23:54;;;;;;;5.70;1.73;;;25.90;51.60;;;;;;5073526;28;20202;-55
2023/01/10 05:26:36;;;;;;;4.25;1.42;;;25.90;51.60;;;;;;5073066;28;20214;-59
2023/01/10 05:29:08;;;;;;;4.95;1.48;;;26.00;51.60;;;;;;5072696;28;20253;-57
2023/01/10 05:31:42;;;;;;;5.85;1.70;;;26.00;51.60;;;;;;5072668;28;20195;-54
2023/01/10 05:34:15;;;;;;;3.08;1.30;;;25.90;51.60;;;;;;5069520;28;20195;-59
2023/01/10 05:36:45;;;;;;;6.03;1.75;;;26.00;51.70;;;;;;5073054;28;20202;-57
2023/01/10 05:39:18;;;;;;;5.50;1.65;;;26.00;51.50;;;;;;5082586;28;20202;-54
2023/01/10 05:41:49;;;;;;;5.47;1.70;;;26.00;51.50;;;;;;5092276;28;20229;-52
2023/01/10 05:44:20;;;;;;;4.15;1.50;;;25.90;51.30;;;;;;5092381;28;20237;-55
2023/01/10 05:50:17;;;;;;;4.45;1.52;;;25.90;51.20;;;;;;5092857;28;20211;-50
2023/01/10 05:52:51;;;;;;;3.13;1.42;;;25.90;51.20;;;;;;5092399;28;20251;-56
2023/01/10 05:55:27;;;;;;;3.92;1.70;;;25.90;51.20;;;;;;5079694;28;20210;-51
2023/01/10 05:58:00;;;;;;;3.45;1.55;;;25.90;51.20;;;;;;5072834;28;20206;-53
2023/01/10 06:03:53;;;;;;;3.38;1.27;;;25.90;51.30;;;;;;5071978;28;20189;-52
2023/01/10 06:06:24;;;;;;;4.85;1.77;;;25.90;51.20;;;;;;5071116;28;20257;-59
2023/01/10 06:09:22;;;;;;;4.35;1.65;;;25.90;51.20;;;;;;5077028;28;20233;-56
2023/01/10 06:11:55;;;;;;;4.57;1.40;;;25.90;51.30;;;;;;5070541;28;20203;-55
2023/01/10 06:14:25;;;;;;;5.30;1.40;;;25.90;51.20;;;;;;5085418;28;20640;-54
2023/01/10 06:16:56;;;;;;;5.28;1.85;;;25.90;51.20;;;;;;5071339;28;20281;-57
2023/01/10 06:19:27;;;;;;;4.60;1.40;;;25.90;51.10;;;;;;5071355;28;20190;-55
2023/01/10 06:21:58;;;;;;;6.78;2.10;;;25.90;51.10;;;;;;5071326;28;20834;-53
2023/01/10 06:24:29;;;;;;;3.70;1.75;;;25.90;51.00;;;;;;5070857;28;20702;-51
2023/01/10 06:27:01;;;;;;;4.80;1.55;;;25.90;51.10;;;;;;5071427;28;20238;-51
2023/01/10 06:29:32;;;;;;;5.25;1.60;;;25.90;51.10;;;;;;5070986;28;20748;-54
2023/01/10 06:32:03;;;;;;;4.22;1.55;;;25.90;51.70;;;;;;5070595;28;20285;-53
2023/01/10 06:34:34;;;;;;;4.65;1.60;;;25.90;51.70;;;;;;5070441;28;20272;-53
2023/01/10 06:37:05;;;;;;;4.75;1.50;;;25.90;51.00;;;;;;5070873;28;20209;-51
2023/01/10 06:39:36;;;;;;;3.35;1.65;;;25.90;51.10;;;;;;5078254;28;20807;-54
2023/01/10 06:42:08;;;;;;;3.72;1.35;;;25.90;51.10;;;;;;5070224;28;20278;-55
2023/01/10 06:44:39;;;;;;;5.80;1.88;;;25.90;51.00;;;;;;5071013;28;20337;-53
2023/01/10 06:47:10;;;;;;;3.33;1.63;;;25.80;51.00;;;;;;5070340;28;20203;-54
2023/01/10 06:49:41;;;;;;;4.18;1.58;;;25.80;51.00;;;;;;5074279;28;20201;-55
2023/01/10 06:52:12;;;;;;;4.22;1.55;;;25.80;50.90;;;;;;5070386;28;20230;-50
2023/01/10 06:54:42;;;;;;;3.22;1.30;;;25.80;50.90;;;;;;5069703;28;20250;-52
2023/01/10 06:57:15;;;;;;;4.35;1.83;;;25.80;50.90;;;;;;5069346;28;20205;-57
2023/01/10 06:59:46;;;;;;;2.85;1.23;;;25.80;50.90;;;;;;5070295;28;20198;-52
2023/01/10 07:02:17;;;;;;;2.55;1.30;;;25.80;50.90;;;;;;5071266;28;20237;-52
2023/01/10 07:04:49;;;;;;;4.18;1.60;;;25.80;50.90;;;;;;5070513;28;20246;-56
2023/01/10 07:07:20;;;;;;;4.18;1.45;;;25.80;50.80;;;;;;5070278;28;20608;-57
2023/01/10 07:09:51;;;;;;;4.32;1.73;;;25.70;50.80;;;;;;5078280;28;20911;-53
2023/01/10 07:12:24;;;;;;;4.70;1.48;;;25.70;50.90;;;;;;5086832;28;20230;-57
2023/01/10 07:14:55;;;;;;;4.70;1.50;;;25.70;50.90;;;;;;5070406;28;20761;-53
2023/01/10 07:17:25;;;;;;;4.15;1.30;;;25.70;50.90;;;;;;5070576;28;20205;-53
2023/01/10 07:19:56;;;;;;;3.70;1.50;;;25.70;50.90;;;;;;5070931;28;20281;-50
2023/01/10 07:22:27;;;;;;;5.38;1.50;;;25.70;50.90;;;;;;5070691;28;20281;-50
2023/01/10 07:24:58;;;;;;;3.90;1.67;;;25.70;50.90;;;;;;5071275;28;20341;-47
2023/01/10 07:27:33;;;;;;;2.70;1.17;;;25.60;50.80;;;;;;5075989;28;20643;-56
2023/01/10 07:30:04;;;;;;;3.10;1.40;;;25.70;50.90;;;;;;5070482;28;20281;-48
2023/01/10 07:32:37;;;;;;;3.50;1.35;;;25.60;51.30;;;;;;5070488;28;20281;-56
2023/01/10 07:35:08;;;;;;;5.25;1.63;;;25.60;50.70;;;;;;5081352;28;20271;-51
2023/01/10 07:37:39;;;;;;;3.42;1.40;;;25.60;50.70;;;;;;5090170;28;20232;-49
2023/01/10 07:40:10;;;;;;;4.32;1.25;;;25.60;50.80;;;;;;5090352;28;20284;-55
2023/01/10 07:42:43;;;;;;;2.72;1.30;;;25.60;50.70;;;;;;5090532;28;20233;-56
2023/01/10 07:45:15;;;;;;;3.13;1.52;;;25.60;50.80;;;;;;5089690;28;20214;-57
2023/01/10 07:47:46;;;;;;;3.05;1.27;;;25.50;50.70;;;;;;5090700;28;20276;-50
2023/01/10 07:50:17;;;;;;;6.53;1.55;;;25.50;50.80;;;;;;5090925;28;20281;-52
2023/01/10 07:52:48;;;;;;;3.80;1.52;;;25.50;50.80;;;;;;5090889;28;20202;-53
2023/01/10 07:55:19;;;;;;;4.35;1.40;;;25.50;50.80;;;;;;5090673;28;20226;-54
2023/01/10 07:57:53;;;;;;;3.88;1.48;;;25.50;50.80;;;;;;5094793;28;20225;-56
2023/01/10 08:00:24;;;;;;;8.20;1.75;;;25.50;50.80;;;;;;5094850;28;20312;-49
2023/01/10 08:02:57;;;;;;;6.28;1.83;;;25.50;50.80;;;;;;5094194;28;20277;-52
2023/01/10 08:05:28;;;;;;;6.88;1.90;;;25.50;50.80;;;;;;5094730;28;20300;-54
2023/01/10 08:07:59;;;;;;;7.03;2.15;;;25.50;50.90;;;;;;5094537;28;20232;-54
2023/01/10 08:10:30;;;;;;;7.05;2.00;;;25.40;50.90;;;;;;5094700;28;20201;-51
2023/01/10 08:13:03;;;;;;;5.80;1.95;;;25.40;50.90;;;;;;5094858;28;20229;-51
2023/01/10 08:15:34;;;;;;;8.35;2.13;;;25.40;51.00;;;;;;5094434;28;20256;-58
2023/01/10 08:18:05;;;;;;;6.90;2.00;;;25.40;50.90;;;;;;5094652;28;20285;-54
2023/01/10 08:20:36;;;;;;;4.18;1.60;;;25.30;50.90;;;;;;5076155;28;20313;-57
2023/01/10 08:23:07;;;;;;;6.07;1.88;;;25.30;50.90;;;;;;5074052;28;20231;-59
2023/01/10 08:25:38;;;;;;;5.28;1.77;;;25.30;50.90;;;;;;5082138;28;20217;-57
2023/01/10 08:28:10;;;;;;;5.32;1.80;;;25.30;50.90;;;;;;5092988;28;20285;-54
2023/01/10 08:30:42;;;;;;;4.10;1.70;;;25.30;50.90;;;;;;5074254;28;20206;-50
2023/01/10 08:33:13;;;;;;;5.97;1.77;;;25.30;51.00;;;;;;5080992;28;20206;-54
2023/01/10 08:35:45;;;;;;;5.47;1.67;;;25.30;50.90;;;;;;5074555;28;20211;-55
2023/01/10 08:38:16;;;;;;;5.93;1.80;;;25.30;50.90;;;;;;5074815;28;20560;-54
2023/01/10 08:40:47;;;;;;;4.40;1.63;;;25.20;50.90;;;;;;5073791;28;20254;-57
2023/01/10 08:43:20;;;;;;;4.25;1.80;;;25.30;50.90;;;;;;5072285;28;20199;-58
2023/01/10 08:45:52;;;;;;;3.70;1.77;;;25.20;50.90;;;;;;5091520;28;20222;-56
2023/01/10 08:48:23;;;;;;;4.68;1.50;;;25.20;50.90;;;;;;5092807;28;20198;-57
2023/01/10 08:50:53;;;;;;;4.75;1.77;;;25.20;50.90;;;;;;5093121;28;20662;-58
2023/01/10 08:53:30;;;;;;;4.85;1.70;;;25.10;50.80;;;;;;5092812;28;20220;-57
2023/01/10 08:56:00;;;;;;;5.65;1.60;;;25.10;50.80;;;;;;5092370;28;20829;-58
2023/01/10 08:58:33;;;;;;;5.45;1.70;;;25.10;50.80;;;;;;5092425;28;20244;-58
2023/01/10 09:01:06;;;;;;;5.57;1.80;;;25.10;50.80;;;;;;5093594;28;20695;-59
2023/01/10 09:03:38;;;;;;;3.58;1.65;;;25.10;50.80;;;;;;5092039;28;20194;-54
2023/01/10 09:06:10;;;;;;;3.17;1.70;;;25.10;50.80;;;;;;5071924;28;20214;-52
2023/01/10 09:08:40;;;;;;;4.25;1.60;;;25.10;50.80;;;;;;5075863;28;20724;-54
2023/01/10 09:11:11;;;;;;;3.92;1.50;;;25.10;50.90;;;;;;5074386;28;20673;-53
2023/01/10 09:13:50;;;;;;;4.25;1.52;;;25.00;50.80;;;;;;5076654;28;20269;-55
2023/01/10 09:16:21;;;;;;;3.00;1.60;;;25.00;50.80;;;;;;5071648;28;20786;-56
2023/01/10 09:18:51;;;;;;;3.25;1.30;;;25.00;50.80;;;;;;5071775;28;20294;-47
2023/01/10 09:21:22;;;;;;;5.32;1.52;;;25.00;50.80;;;;;;5091940;28;20642;-51
2023/01/10 09:23:53;;;;;;;3.30;1.40;;;24.90;50.70;;;;;;5091755;28;20197;-57
2023/01/10 09:26:24;;;;;;;2.85;1.30;;;25.00;50.80;;;;;;5092652;28;20225;-54
2023/01/10 09:28:57;;;;;;;3.88;1.50;;;24.90;50.70;;;;;;5091748;28;20827;-52
2023/01/10 09:31:28;;;;;;;3.08;1.40;;;24.90;50.70;;;;;;5092064;28;20201;-56
2023/01/10 09:33:59;;;;;;;3.28;1.42;;;24.90;50.70;;;;;;5088064;28;20218;-53
2023/01/10 09:36:30;;;;;;;3.55;1.60;;;24.90;50.80;;;;;;5071238;28;20215;-55
2023/01/10 09:39:00;;;;;;;2.60;1.23;;;24.90;50.80;;;;;;5078250;28;20198;-58
2023/01/10 09:42:02;;;;;;;2.25;1.17;;;24.80;50.70;;;;;;5071441;28;20597;-51
2023/01/10 09:44:44;;;;;;;4.72;1.70;;;24.80;50.70;;;;;;5073731;28;20298;-51
2023/01/10 09:47:23;;;;;;;3.33;1.08;;;24.80;50.70;;;;;;5072209;28;20286;-49
2023/01/10 09:50:08;;;;;;;3.38;1.33;;;24.80;50.70;;;;;;5071260;28;20277;-53
2023/01/10 09:52:44;;;;;;;3.13;1.33;;;24.70;50.70;;;;;;5071938;28;20234;-59
2023/01/10 09:55:23;;;;;;;2.95;1.10;;;24.70;50.60;;;;;;5071137;28;20242;-54
2023/01/10 09:57:56;;;;;;;3.70;1.20;;;24.70;50.60;;;;;;5071879;28;20612;-54
2023/01/10 10:00:41;;;;;;;3.65;1.50;;;24.70;50.60;;;;;;5070982;28;20285;-55
2023/01/10 10:03:24;;;;;;;3.05;1.40;;;24.70;50.60;;;;;;5070806;28;20289;-52
2023/01/10 10:05:54;;;;;;;5.72;1.73;;;24.70;50.60;;;;;;5071170;28;20315;-52
2023/01/10 10:08:25;;;;;;;3.83;1.35;;;24.60;50.50;;;;;;5073799;28;20198;-50
2023/01/10 10:11:10;;;;;;;2.22;1.27;;;24.60;50.60;;;;;;5076206;28;20205;-56
2023/01/10 10:13:53;;;;;;;2.50;1.00;;;24.60;50.60;;;;;;5074733;28;20194;-47
2023/01/10 10:16:33;;;;;;;3.20;1.40;;;24.60;50.60;;;;;;5073182;28;20272;-52
2023/01/10 10:19:13;;;;;;;3.15;1.25;;;24.50;50.60;;;;;;5070646;28;20290;-56
2023/01/10 10:21:50;;;;;;;3.67;1.50;;;24.50;50.60;;;;;;5071101;28;20328;-52
2023/01/10 10:24:36;;;;;;;3.65;1.38;;;24.50;50.50;;;;;;5070570;28;20448;-51
2023/01/10 10:27:15;;;;;;;1.75;1.05;;;24.50;50.50;;;;;;5070759;28;20282;-58
2023/01/10 10:30:24;;;;;;;4.38;1.38;;;24.50;50.60;;;;;;5074748;28;20273;-52
2023/01/10 10:33:18;;;;;;;4.22;1.30;;;24.50;50.50;;;;;;5090759;28;20736;-51
2023/01/10 10:35:56;;;;;;;2.35;1.10;;;24.50;50.50;;;;;;5088210;28;20317;-52
2023/01/10 10:38:30;;;;;;;3.15;1.50;;;24.40;50.50;;;;;;5090848;28;20201;-56
2023/01/10 10:41:03;;;;;;;2.28;1.40;;;24.40;50.50;;;;;;5076189;28;20193;-49
2023/01/10 10:43:36;;;;;;;2.88;1.20;;;24.40;50.50;;;;;;5070629;28;20281;-52
2023/01/10 10:46:11;;;;;;;2.42;1.27;;;24.30;50.50;;;;;;5069783;28;21006;-53
2023/01/10 10:48:49;;;;;;;2.92;1.40;;;24.30;50.50;;;;;;5070077;28;20628;-50
2023/01/10 10:51:27;;;;;;;2.15;1.00;;;24.30;50.50;;;;;;5086368;28;20225;-55
2023/01/10 10:54:00;;;;;;;3.00;1.50;;;24.30;50.50;;;;;;5091053;28;20642;-50
2023/01/10 10:56:31;;;;;;;2.85;1.17;;;24.30;50.50;;;;;;5090327;28;20212;-52
2023/01/10 10:59:03;;;;;;;2.95;1.33;;;24.30;50.50;;;;;;5091080;28;20217;-50
2023/01/10 11:01:33;;;;;;;1.98;1.08;;;24.20;50.40;;;;;;5090570;28;20214;-57
2023/01/10 11:04:11;;;;;;;1.95;0.98;;;24.20;50.40;;;;;;5087461;28;20234;-49
2023/01/10 11:06:47;;;;;;;1.83;1.02;;;24.20;50.50;;;;;;5071679;28;20205;-51
2023/01/10 11:09:21;;;;;;;2.33;1.02;;;24.20;50.40;;;;;;5080707;28;20202;-48
2023/01/10 11:11:53;;;;;;;2.95;1.30;;;24.20;50.40;;;;;;5070604;28;20191;-51
2023/01/10 11:14:45;;;;;;;2.47;1.02;;;24.20;50.40;;;;;;5079530;28;20229;-46
2023/01/10 11:17:24;;;;;;;2.35;1.10;;;24.20;50.40;;;;;;5090145;28;20198;-57
2023/01/10 11:20:05;;;;;;;1.42;0.85;;;24.20;50.40;;;;;;5089787;28;20190;-56
2023/01/10 11:22:41;;;;;;;3.20;1.33;;;24.10;50.40;;;;;;5089748;28;20265;-49
2023/01/10 11:25:18;;;;;;;1.85;0.88;;;24.10;50.40;;;;;;5089943;28;20301;-51
2023/01/10 11:27:51;;;;;;;2.35;1.10;;;24.10;50.40;;;;;;5086361;28;20561;-58
2023/01/10 11:30:24;;;;;;;1.90;1.10;;;24.00;50.40;;;;;;5072532;28;20230;-55
2023/01/10 11:32:57;;;;;;;2.35;1.20;;;24.00;50.40;;;;;;5070652;28;20260;-54
2023/01/10 11:35:32;;;;;;;3.20;1.08;;;24.00;50.40;;;;;;5070352;28;20264;-53
2023/01/10 11:38:04;;;;;;;2.53;0.90;;;24.00;50.40;;;;;;5070389;28;20680;-55
2023/01/10 11:40:36;;;;;;;2.00;0.95;;;24.00;50.30;;;;;;5069944;28;20252;-55
2023/01/10 11:43:26;;;;;;;2.13;1.00;;;24.00;50.40;;;;;;5073213;28;20225;-55
2023/01/10 11:46:01;;;;;;;2.60;1.30;;;24.00;50.30;;;;;;5070614;28;20257;-51
2023/01/10 11:48:46;;;;;;;2.17;1.13;;;24.00;50.30;;;;;;5070479;28;20194;-57
2023/01/10 11:51:24;;;;;;;1.15;0.90;;;24.00;50.30;;;;;;5070150;28;20634;-56
2023/01/10 11:54:00;;;;;;;2.33;1.08;;;23.90;50.40;;;;;;5070058;28;20234;-53
2023/01/10 11:56:34;;;;;;;2.08;1.10;;;23.90;50.40;;;;;;5070176;28;20214;-55
2023/01/10 11:59:12;;;;;;;2.15;1.08;;;23.90;50.40;;;;;;5070580;28;20709;-52
2023/01/10 12:01:46;;;;;;;1.83;1.00;;;23.80;50.30;;;;;;5071301;28;20309;-58
2023/01/10 12:04:21;;;;;;;0.73;0.70;;;23.80;50.40;;;;;;5070640;28;20278;-54
2023/01/10 12:06:57;;;;;;;1.05;0.70;;;23.80;50.40;;;;;;5070082;28;21029;-55
2023/01/10 12:09:41;;;;;;;2.30;1.08;;;23.80;50.40;;;;;;5082211;28;20241;-54
2023/01/10 12:12:24;;;;;;;2.67;1.10;;;23.80;50.40;;;;;;5090679;28;20285;-58
2023/01/10 12:14:56;;;;;;;1.70;1.10;;;23.80;51.00;;;;;;5090460;28;20249;-58
2023/01/10 12:17:28;;;;;;;1.73;0.95;;;23.70;50.30;;;;;;5090180;28;20343;-56
2023/01/10 12:20:01;;;;;;;2.08;1.15;;;23.80;50.40;;;;;;5090484;28;20705;-54
2023/01/10 12:22:37;;;;;;;3.55;0.90;;;23.70;50.30;;;;;;5089730;28;20237;-55
2023/01/10 12:25:16;;;;;;;2.33;0.98;;;23.70;50.30;;;;;;5090274;28;20308;-59
2023/01/10 12:27:49;;;;;;;2.17;1.00;;;23.70;50.30;;;;;;5090581;28;20456;-58
2023/01/10 12:30:26;;;;;;;1.70;1.00;;;23.70;50.30;;;;;;5090346;28;20194;-53
2023/01/10 12:32:59;;;;;;;1.08;0.75;;;23.70;50.40;;;;;;5090542;28;20649;-54
2023/01/10 12:35:43;;;;;;;1.48;0.95;;;23.70;50.40;;;;;;5090248;28;20246;-58
2023/01/10 12:44:09;;;;;;;3.03;1.17;;;23.60;50.30;;;;;;5090308;28;20186;-56
2023/01/10 12:44:13;;;;;;;1.20;0.90;;;23.60;50.30;;;;;;5094070;28;20202;-58
2023/01/10 12:46:48;;;;;;;1.73;0.80;;;23.60;50.30;;;;;;5093846;28;20205;-57
2023/01/10 12:49:24;;;;;;;2.70;1.20;;;23.60;50.30;;;;;;5093982;28;20237;-55
2023/01/10 12:52:00;;;;;;;1.10;0.85;;;23.60;50.40;;;;;;5093892;28;20607;-48
2023/01/10 12:54:33;;;;;;;1.83;1.05;;;23.60;50.40;;;;;;5093431;28;20317;-51
2023/01/10 12:57:08;;;;;;;0.98;0.82;;;23.60;50.40;;;;;;5093623;28;20198;-54
2023/01/10 12:59:42;;;;;;;2.40;1.10;;;23.50;50.30;;;;;;5093505;28;20199;-52
2023/01/10 13:02:20;;;;;;;2.15;0.93;;;23.50;50.30;;;;;;5094077;28;20260;-51
2023/01/10 13:04:53;;;;;;;1.05;0.80;;;23.50;50.30;;;;;;5093156;28;20218;-55
2023/01/10 13:07:25;;;;;;;2.55;1.05;;;23.50;50.40;;;;;;5092862;28;20194;-54
2023/01/10 13:09:59;;;;;;;1.40;0.90;;;23.50;50.40;;;;;;5089615;28;20222;-54
2023/01/10 13:12:35;;;;;;;1.60;0.80;;;23.50;50.50;;;;;;5073040;28;20654;-53
2023/01/10 13:15:12;;;;;;;2.03;1.10;;;23.40;51.00;;;;;;5073162;28;20306;-51
2023/01/10 13:17:48;;;;;;;2.33;0.85;;;23.40;50.40;;;;;;5073409;28;20277;-52
2023/01/10 13:20:45;;;;;;;1.63;1.00;;;23.40;50.40;;;;;;5073034;28;20277;-58
2023/01/10 13:23:32;;;;;;;2.03;1.00;;;23.40;50.40;;;;;;5072429;28;20233;-51
2023/01/10 13:26:07;;;;;;;1.17;0.65;;;23.40;50.30;;;;;;5074730;28;20213;-56
2023/01/10 13:28:41;;;;;;;2.47;1.00;;;23.40;50.30;;;;;;5075417;28;20187;-52
2023/01/10 13:31:26;;;;;;;1.58;0.75;;;23.40;50.40;;;;;;5072983;28;20230;-57
2023/01/10 13:34:00;;;;;;;1.55;0.93;;;23.40;50.40;;;;;;5072694;28;20570;-54
2023/01/10 13:36:37;;;;;;;1.70;0.77;;;23.40;50.40;;;;;;5071910;28;20211;-54
2023/01/10 13:39:20;;;;;;;1.20;0.75;;;23.30;50.40;;;;;;5081186;28;20288;-58